TAP1255 LPPT-LEPA
Flight info
| Callsign | TAP1255 |
|---|---|
| Flight time | 1h 27m |
| Altitude | 40000 |
| Route | ORVED DCT UREDI DCT NVS/N0453F410 DCT NANDO DCT FENXE DCT MABUX DCT RETBA DCT MOPIR DCT LASPO/N0444F400 DCT ORVUS M871 GODOX |
| Aircraft | A343/H-SDE2E3FGHIJ4J5M1RWXY/LB1D1 |
Departure
| Time | 2026-05-07 18:25 |
|---|---|
| Airport | Lisbon Humberto Delgado Airport (LPPT) |
Arrival
| Time | 2026-05-07 19:52 |
|---|---|
| Airport | Palma de Mallorca Airport (LEPA) |
| Time | Latitude | Longitude | Altitude | Speed | Heading |
|---|---|---|---|---|---|
| 2026-05-07 17:44 | 38.77101 | -9.13797 | 363 ft | 0 kts | 199° |
| 2026-05-07 18:11 | 38.77103 | -9.13796 | 356 ft | 2 kts | 199° |
| 2026-05-07 18:12 | 38.77127 | -9.13785 | 365 ft | 4 kts | 199° |
| 2026-05-07 18:12 | 38.77150 | -9.13775 | 365 ft | 2 kts | 199° |
| 2026-05-07 18:12 | 38.77172 | -9.13761 | 362 ft | 4 kts | 225° |
| 2026-05-07 18:12 | 38.77186 | -9.13733 | 363 ft | 4 kts | 254° |
| 2026-05-07 18:13 | 38.77190 | -9.13716 | 364 ft | 1 kts | 258° |
| 2026-05-07 18:16 | 38.77189 | -9.13718 | 364 ft | 1 kts | 258° |
| 2026-05-07 18:16 | 38.77184 | -9.13752 | 365 ft | 7 kts | 258° |
| 2026-05-07 18:16 | 38.77173 | -9.13822 | 361 ft | 8 kts | 258° |
| 2026-05-07 18:16 | 38.77147 | -9.13886 | 360 ft | 8 kts | 219° |
| 2026-05-07 18:17 | 38.77086 | -9.13923 | 364 ft | 11 kts | 204° |
| 2026-05-07 18:17 | 38.77002 | -9.13968 | 358 ft | 15 kts | 202° |
| 2026-05-07 18:17 | 38.76898 | -9.14024 | 358 ft | 12 kts | 205° |
| 2026-05-07 18:17 | 38.76813 | -9.14074 | 353 ft | 15 kts | 201° |
| 2026-05-07 18:18 | 38.76722 | -9.14117 | 357 ft | 12 kts | 201° |
| 2026-05-07 18:18 | 38.76665 | -9.14147 | 354 ft | 14 kts | 203° |
| 2026-05-07 18:18 | 38.76596 | -9.14198 | 354 ft | 8 kts | 239° |
| 2026-05-07 18:18 | 38.76599 | -9.14251 | 352 ft | 0 kts | 290° |
| 2026-05-07 18:23 | 38.76600 | -9.14255 | 345 ft | 3 kts | 290° |
| 2026-05-07 18:23 | 38.76634 | -9.14348 | 335 ft | 15 kts | 311° |
| 2026-05-07 18:23 | 38.76704 | -9.14355 | 353 ft | 6 kts | 20° |
| 2026-05-07 18:23 | 38.76707 | -9.14354 | 353 ft | 0 kts | 20° |
| 2026-05-07 18:24 | 38.76847 | -9.14284 | 356 ft | 53 kts | 22° |
| 2026-05-07 18:24 | 38.77384 | -9.13993 | 371 ft | 113 kts | 22° |
| 2026-05-07 18:24 | 38.78284 | -9.13511 | 373 ft | 162 kts | 21° |
| 2026-05-07 18:24 | 38.79369 | -9.12902 | 830 ft | 173 kts | 20° |
| 2026-05-07 18:25 | 38.80427 | -9.12202 | 1555 ft | 175 kts | 25° |
| 2026-05-07 18:25 | 38.81575 | -9.11277 | 1844 ft | 207 kts | 30° |
| 2026-05-07 18:25 | 38.82831 | -9.10211 | 2090 ft | 234 kts | 29° |
| 2026-05-07 18:25 | 38.84299 | -9.09076 | 2539 ft | 254 kts | 25° |
| 2026-05-07 18:26 | 38.85891 | -9.07996 | 3351 ft | 258 kts | 25° |
| 2026-05-07 18:26 | 38.87506 | -9.06913 | 4035 ft | 268 kts | 26° |
| 2026-05-07 18:26 | 38.89125 | -9.05636 | 4701 ft | 279 kts | 39° |
| 2026-05-07 18:26 | 38.90408 | -9.03759 | 5470 ft | 282 kts | 56° |
| 2026-05-07 18:27 | 38.91435 | -9.01619 | 6367 ft | 282 kts | 64° |
| 2026-05-07 18:27 | 38.92361 | -8.99389 | 7141 ft | 284 kts | 66° |
| 2026-05-07 18:27 | 38.93240 | -8.97106 | 7942 ft | 286 kts | 67° |
| 2026-05-07 18:27 | 38.94093 | -8.94787 | 8735 ft | 289 kts | 68° |
| 2026-05-07 18:28 | 38.94940 | -8.92428 | 9506 ft | 293 kts | 68° |
| 2026-05-07 18:28 | 38.95787 | -8.90031 | 10220 ft | 298 kts | 69° |
| 2026-05-07 18:28 | 38.96661 | -8.87533 | 10543 ft | 316 kts | 69° |
| 2026-05-07 18:28 | 38.97580 | -8.84893 | 10868 ft | 332 kts | 68° |
| 2026-05-07 18:29 | 38.98539 | -8.82137 | 11346 ft | 341 kts | 68° |
| 2026-05-07 18:29 | 38.99516 | -8.79329 | 11929 ft | 347 kts | 68° |
| 2026-05-07 18:29 | 39.00506 | -8.76481 | 12565 ft | 351 kts | 68° |
| 2026-05-07 18:29 | 39.01506 | -8.73596 | 13209 ft | 355 kts | 68° |
| 2026-05-07 18:30 | 39.02516 | -8.70679 | 13827 ft | 359 kts | 68° |
| 2026-05-07 18:30 | 39.03540 | -8.67719 | 14346 ft | 365 kts | 68° |
| 2026-05-07 18:30 | 39.04573 | -8.64728 | 14922 ft | 368 kts | 68° |
| 2026-05-07 18:30 | 39.05617 | -8.61704 | 15507 ft | 371 kts | 68° |
| 2026-05-07 18:31 | 39.06667 | -8.58655 | 16089 ft | 375 kts | 68° |
| 2026-05-07 18:31 | 39.07729 | -8.55571 | 16703 ft | 378 kts | 68° |
| 2026-05-07 18:31 | 39.08796 | -8.52468 | 17304 ft | 382 kts | 68° |
| 2026-05-07 18:31 | 39.09873 | -8.49332 | 17919 ft | 385 kts | 68° |
| 2026-05-07 18:32 | 39.10961 | -8.46163 | 18477 ft | 389 kts | 68° |
| 2026-05-07 18:32 | 39.12059 | -8.42957 | 18969 ft | 394 kts | 68° |
| 2026-05-07 18:32 | 39.13170 | -8.39712 | 19465 ft | 399 kts | 68° |
| 2026-05-07 18:32 | 39.14295 | -8.36421 | 19948 ft | 404 kts | 68° |
| 2026-05-07 18:33 | 39.15433 | -8.33090 | 20407 ft | 409 kts | 67° |
| 2026-05-07 18:33 | 39.16587 | -8.29707 | 20837 ft | 416 kts | 67° |
| 2026-05-07 18:33 | 39.17757 | -8.26275 | 21313 ft | 421 kts | 67° |
| 2026-05-07 18:33 | 39.18938 | -8.22807 | 21805 ft | 425 kts | 67° |
| 2026-05-07 18:34 | 39.20132 | -8.19295 | 22277 ft | 430 kts | 67° |
| 2026-05-07 18:34 | 39.21336 | -8.15749 | 22749 ft | 435 kts | 67° |
| 2026-05-07 18:34 | 39.22554 | -8.12157 | 23208 ft | 440 kts | 67° |
| 2026-05-07 18:34 | 39.23784 | -8.08527 | 23637 ft | 444 kts | 67° |
| 2026-05-07 18:35 | 39.25023 | -8.04864 | 24043 ft | 447 kts | 67° |
| 2026-05-07 18:35 | 39.26269 | -8.01175 | 24482 ft | 450 kts | 67° |
| 2026-05-07 18:35 | 39.27521 | -7.97467 | 24907 ft | 452 kts | 67° |
| 2026-05-07 18:35 | 39.28781 | -7.93728 | 25324 ft | 455 kts | 67° |
| 2026-05-07 18:36 | 39.30044 | -7.89975 | 25736 ft | 457 kts | 67° |
| 2026-05-07 18:36 | 39.31315 | -7.86191 | 26134 ft | 460 kts | 67° |
| 2026-05-07 18:36 | 39.32591 | -7.82392 | 26549 ft | 463 kts | 67° |
| 2026-05-07 18:36 | 39.33873 | -7.78568 | 26936 ft | 466 kts | 67° |
| 2026-05-07 18:37 | 39.35162 | -7.74715 | 27339 ft | 468 kts | 66° |
| 2026-05-07 18:37 | 39.36457 | -7.70841 | 27723 ft | 471 kts | 66° |
| 2026-05-07 18:37 | 39.37760 | -7.66938 | 28109 ft | 474 kts | 66° |
| 2026-05-07 18:37 | 39.39079 | -7.63024 | 28497 ft | 476 kts | 65° |
| 2026-05-07 18:38 | 39.40537 | -7.59172 | 28844 ft | 478 kts | 61° |
| 2026-05-07 18:38 | 39.42147 | -7.55396 | 29248 ft | 481 kts | 59° |
| 2026-05-07 18:38 | 39.43814 | -7.51630 | 29605 ft | 483 kts | 57° |
| 2026-05-07 18:38 | 39.45614 | -7.47948 | 29976 ft | 485 kts | 54° |
| 2026-05-07 18:39 | 39.47486 | -7.44314 | 30247 ft | 488 kts | 54° |
| 2026-05-07 18:39 | 39.49388 | -7.40643 | 30533 ft | 492 kts | 54° |
| 2026-05-07 18:39 | 39.51299 | -7.36955 | 30791 ft | 495 kts | 54° |
| 2026-05-07 18:39 | 39.53219 | -7.33243 | 31059 ft | 498 kts | 54° |
| 2026-05-07 18:40 | 39.55154 | -7.29494 | 31344 ft | 501 kts | 54° |
| 2026-05-07 18:40 | 39.57095 | -7.25726 | 31613 ft | 504 kts | 54° |
| 2026-05-07 18:40 | 39.59045 | -7.21929 | 31931 ft | 507 kts | 54° |
| 2026-05-07 18:40 | 39.60978 | -7.18110 | 32307 ft | 507 kts | 54° |
| 2026-05-07 18:41 | 39.62904 | -7.14261 | 32666 ft | 508 kts | 54° |
| 2026-05-07 18:41 | 39.64822 | -7.10417 | 33040 ft | 508 kts | 54° |
| 2026-05-07 18:41 | 39.66741 | -7.06557 | 33411 ft | 509 kts | 54° |
| 2026-05-07 18:41 | 39.68656 | -7.02693 | 33779 ft | 509 kts | 54° |
| 2026-05-07 18:42 | 39.70569 | -6.98825 | 34084 ft | 510 kts | 54° |
| 2026-05-07 18:42 | 39.72483 | -6.94950 | 34400 ft | 510 kts | 54° |
| 2026-05-07 18:42 | 39.74398 | -6.91075 | 34718 ft | 510 kts | 54° |
| 2026-05-07 18:42 | 39.76314 | -6.87197 | 35005 ft | 510 kts | 54° |
| 2026-05-07 18:43 | 39.78227 | -6.83324 | 35332 ft | 510 kts | 54° |
| 2026-05-07 18:43 | 39.80124 | -6.79432 | 35669 ft | 509 kts | 54° |
| 2026-05-07 18:43 | 39.82012 | -6.75536 | 35968 ft | 509 kts | 54° |
| 2026-05-07 18:43 | 39.83900 | -6.71634 | 36272 ft | 509 kts | 54° |
| 2026-05-07 18:44 | 39.85778 | -6.67744 | 36695 ft | 506 kts | 54° |
| 2026-05-07 18:44 | 39.87566 | -6.63803 | 37002 ft | 508 kts | 60° |
| 2026-05-07 18:44 | 39.88938 | -6.59557 | 37272 ft | 510 kts | 69° |
| 2026-05-07 18:44 | 39.90056 | -6.55161 | 37540 ft | 511 kts | 72° |
| 2026-05-07 18:45 | 39.91061 | -6.50724 | 37838 ft | 512 kts | 73° |
| 2026-05-07 18:45 | 39.92011 | -6.46251 | 38101 ft | 512 kts | 73° |
| 2026-05-07 18:45 | 39.92937 | -6.41779 | 38358 ft | 512 kts | 73° |
| 2026-05-07 18:45 | 39.93863 | -6.37299 | 38620 ft | 512 kts | 73° |
| 2026-05-07 18:46 | 39.94781 | -6.32889 | 38872 ft | 510 kts | 73° |
| 2026-05-07 18:46 | 39.95726 | -6.28379 | 39142 ft | 508 kts | 73° |
| 2026-05-07 18:46 | 39.96661 | -6.23945 | 39389 ft | 507 kts | 73° |
| 2026-05-07 18:46 | 39.97582 | -6.19585 | 39631 ft | 506 kts | 73° |
| 2026-05-07 18:47 | 39.98528 | -6.15110 | 39833 ft | 506 kts | 73° |
| 2026-05-07 18:47 | 40.00412 | -6.06174 | 39873 ft | 516 kts | 73° |
| 2026-05-07 18:48 | 40.02314 | -5.97112 | 39867 ft | 518 kts | 73° |
| 2026-05-07 18:48 | 40.04201 | -5.88068 | 39872 ft | 516 kts | 73° |
| 2026-05-07 18:49 | 40.06081 | -5.79023 | 39873 ft | 516 kts | 73° |
| 2026-05-07 18:49 | 40.07953 | -5.69979 | 39893 ft | 516 kts | 73° |
| 2026-05-07 18:50 | 40.09816 | -5.60936 | 39891 ft | 515 kts | 73° |
| 2026-05-07 18:50 | 40.11667 | -5.51913 | 39891 ft | 514 kts | 73° |
| 2026-05-07 18:51 | 40.13499 | -5.42948 | 39894 ft | 513 kts | 73° |
| 2026-05-07 18:51 | 40.15330 | -5.33945 | 39892 ft | 512 kts | 73° |
| 2026-05-07 18:52 | 40.17149 | -5.24964 | 39889 ft | 511 kts | 73° |
| 2026-05-07 18:52 | 40.18961 | -5.15977 | 39895 ft | 511 kts | 73° |
| 2026-05-07 18:53 | 40.20766 | -5.06987 | 39899 ft | 511 kts | 73° |
| 2026-05-07 18:53 | 40.22563 | -4.97998 | 39904 ft | 511 kts | 73° |
| 2026-05-07 18:54 | 40.24354 | -4.88999 | 39894 ft | 511 kts | 74° |
| 2026-05-07 18:54 | 40.26139 | -4.79991 | 39909 ft | 512 kts | 74° |
| 2026-05-07 18:55 | 40.27919 | -4.70971 | 39907 ft | 512 kts | 74° |
| 2026-05-07 18:55 | 40.29691 | -4.61945 | 39917 ft | 512 kts | 74° |
| 2026-05-07 18:56 | 40.31456 | -4.52915 | 39920 ft | 512 kts | 75° |
| 2026-05-07 18:56 | 40.33219 | -4.43858 | 39924 ft | 513 kts | 75° |
| 2026-05-07 18:57 | 40.34976 | -4.34792 | 39927 ft | 513 kts | 75° |
| 2026-05-07 18:57 | 40.36224 | -4.25614 | 40204 ft | 510 kts | 89° |
| 2026-05-07 18:57 | 40.36061 | -4.21006 | 40592 ft | 503 kts | 98° |
| 2026-05-07 18:58 | 40.35548 | -4.16495 | 40867 ft | 500 kts | 103° |
| 2026-05-07 18:58 | 40.34025 | -4.07534 | 40928 ft | 507 kts | 106° |
| 2026-05-07 18:59 | 40.32611 | -4.00054 | 40924 ft | 509 kts | 106° |
| 2026-05-07 18:59 | 40.30954 | -3.91057 | 40919 ft | 507 kts | 105° |
| 2026-05-07 19:00 | 40.29345 | -3.82053 | 40925 ft | 507 kts | 105° |
| 2026-05-07 19:00 | 40.27747 | -3.73032 | 40912 ft | 510 kts | 105° |
| 2026-05-07 19:01 | 40.26135 | -3.63987 | 40913 ft | 510 kts | 105° |
| 2026-05-07 19:01 | 40.24515 | -3.54944 | 40913 ft | 510 kts | 105° |
| 2026-05-07 19:02 | 40.22885 | -3.45896 | 40918 ft | 510 kts | 105° |
| 2026-05-07 19:02 | 40.21252 | -3.36879 | 40926 ft | 510 kts | 105° |
| 2026-05-07 19:03 | 40.19609 | -3.27843 | 40933 ft | 510 kts | 105° |
| 2026-05-07 19:03 | 40.17956 | -3.18808 | 40929 ft | 511 kts | 105° |
| 2026-05-07 19:04 | 40.16298 | -3.09786 | 40941 ft | 511 kts | 105° |
| 2026-05-07 19:04 | 40.14631 | -3.00756 | 40927 ft | 511 kts | 105° |
| 2026-05-07 19:05 | 40.12959 | -2.91737 | 40930 ft | 510 kts | 105° |
| 2026-05-07 19:05 | 40.11282 | -2.82733 | 40940 ft | 510 kts | 105° |
| 2026-05-07 19:06 | 40.09606 | -2.73777 | 40954 ft | 510 kts | 105° |
| 2026-05-07 19:06 | 40.07071 | -2.60308 | 40952 ft | 509 kts | 105° |
| 2026-05-07 19:07 | 40.05373 | -2.51341 | 40957 ft | 508 kts | 105° |
| 2026-05-07 19:07 | 40.03670 | -2.42388 | 40969 ft | 508 kts | 105° |
| 2026-05-07 19:08 | 40.01961 | -2.33445 | 40966 ft | 508 kts | 105° |
| 2026-05-07 19:08 | 40.00246 | -2.24508 | 40970 ft | 507 kts | 105° |
| 2026-05-07 19:09 | 39.98055 | -2.15802 | 40980 ft | 504 kts | 119° |
| 2026-05-07 19:09 | 39.94834 | -2.07711 | 40988 ft | 503 kts | 121° |
| 2026-05-07 19:10 | 39.91445 | -1.99749 | 40991 ft | 503 kts | 122° |
| 2026-05-07 19:10 | 39.88030 | -1.91799 | 40998 ft | 503 kts | 122° |
| 2026-05-07 19:11 | 39.84630 | -1.83853 | 40997 ft | 501 kts | 122° |
| 2026-05-07 19:11 | 39.81250 | -1.75941 | 41003 ft | 500 kts | 122° |
| 2026-05-07 19:12 | 39.77874 | -1.68051 | 40994 ft | 500 kts | 122° |
| 2026-05-07 19:12 | 39.74477 | -1.60139 | 41006 ft | 503 kts | 122° |
| 2026-05-07 19:13 | 39.71060 | -1.52191 | 40983 ft | 503 kts | 122° |
| 2026-05-07 19:13 | 39.67649 | -1.44283 | 40972 ft | 501 kts | 122° |
| 2026-05-07 19:14 | 39.64238 | -1.36406 | 40964 ft | 500 kts | 122° |
| 2026-05-07 19:14 | 39.60825 | -1.28545 | 40955 ft | 500 kts | 122° |
| 2026-05-07 19:15 | 39.57409 | -1.20692 | 40955 ft | 500 kts | 122° |
| 2026-05-07 19:15 | 39.53975 | -1.12820 | 40957 ft | 503 kts | 122° |
| 2026-05-07 19:16 | 39.50558 | -1.05008 | 40966 ft | 501 kts | 122° |
| 2026-05-07 19:16 | 39.47097 | -0.97119 | 40977 ft | 500 kts | 122° |
| 2026-05-07 19:17 | 39.43656 | -0.89288 | 40985 ft | 500 kts | 122° |
| 2026-05-07 19:17 | 39.40254 | -0.81514 | 40987 ft | 500 kts | 122° |
| 2026-05-07 19:18 | 39.36807 | -0.73699 | 40987 ft | 500 kts | 123° |
| 2026-05-07 19:18 | 39.33349 | -0.65910 | 40977 ft | 500 kts | 123° |
| 2026-05-07 19:19 | 39.30067 | -0.57953 | 40976 ft | 505 kts | 114° |
| 2026-05-07 19:19 | 39.29040 | -0.53616 | 40978 ft | 507 kts | 102° |
| 2026-05-07 19:19 | 39.28646 | -0.49087 | 40975 ft | 508 kts | 90° |
| 2026-05-07 19:20 | 39.28908 | -0.39959 | 40972 ft | 510 kts | 86° |
| 2026-05-07 19:20 | 39.29445 | -0.30831 | 40972 ft | 510 kts | 85° |
| 2026-05-07 19:21 | 39.29980 | -0.21697 | 40969 ft | 510 kts | 86° |
| 2026-05-07 19:21 | 39.30469 | -0.12553 | 40968 ft | 510 kts | 86° |
| 2026-05-07 19:22 | 39.30930 | -0.03421 | 40871 ft | 508 kts | 86° |
| 2026-05-07 19:22 | 39.31155 | 0.01112 | 40231 ft | 503 kts | 86° |
| 2026-05-07 19:22 | 39.31376 | 0.05608 | 39178 ft | 503 kts | 86° |
| 2026-05-07 19:23 | 39.31598 | 0.10141 | 37762 ft | 509 kts | 85° |
| 2026-05-07 19:23 | 39.31821 | 0.14724 | 36242 ft | 514 kts | 84° |
| 2026-05-07 19:23 | 39.32045 | 0.19356 | 34796 ft | 518 kts | 84° |
| 2026-05-07 19:23 | 39.32269 | 0.24009 | 33242 ft | 521 kts | 84° |
| 2026-05-07 19:24 | 39.32493 | 0.28693 | 31773 ft | 527 kts | 84° |
| 2026-05-07 19:24 | 39.32719 | 0.33447 | 30896 ft | 531 kts | 84° |
| 2026-05-07 19:24 | 39.32941 | 0.38199 | 30242 ft | 529 kts | 84° |
| 2026-05-07 19:24 | 39.33160 | 0.42911 | 29773 ft | 521 kts | 85° |
| 2026-05-07 19:25 | 39.33371 | 0.47535 | 29275 ft | 512 kts | 86° |
| 2026-05-07 19:25 | 39.33577 | 0.52096 | 28660 ft | 507 kts | 86° |
| 2026-05-07 19:25 | 39.33780 | 0.56612 | 28101 ft | 500 kts | 86° |
| 2026-05-07 19:25 | 39.33978 | 0.61052 | 27570 ft | 493 kts | 86° |
| 2026-05-07 19:26 | 39.34173 | 0.65448 | 27042 ft | 486 kts | 87° |
| 2026-05-07 19:26 | 39.34363 | 0.69774 | 26514 ft | 479 kts | 87° |
| 2026-05-07 19:26 | 39.34549 | 0.74051 | 26031 ft | 473 kts | 87° |
| 2026-05-07 19:26 | 39.34731 | 0.78251 | 25570 ft | 465 kts | 88° |
| 2026-05-07 19:27 | 39.34909 | 0.82359 | 25344 ft | 451 kts | 89° |
| 2026-05-07 19:27 | 39.35082 | 0.86370 | 24830 ft | 445 kts | 89° |
| 2026-05-07 19:27 | 39.35249 | 0.90340 | 24259 ft | 441 kts | 89° |
| 2026-05-07 19:27 | 39.35412 | 0.94280 | 23702 ft | 437 kts | 89° |
| 2026-05-07 19:28 | 39.35573 | 0.98177 | 23067 ft | 433 kts | 89° |
| 2026-05-07 19:28 | 39.35731 | 1.02047 | 22408 ft | 429 kts | 89° |
| 2026-05-07 19:28 | 39.35887 | 1.05882 | 21751 ft | 426 kts | 89° |
| 2026-05-07 19:28 | 39.36041 | 1.09693 | 21126 ft | 422 kts | 89° |
| 2026-05-07 19:29 | 39.36192 | 1.13462 | 20578 ft | 417 kts | 89° |
| 2026-05-07 19:29 | 39.36341 | 1.17196 | 19958 ft | 415 kts | 89° |
| 2026-05-07 19:29 | 39.36487 | 1.20900 | 19444 ft | 410 kts | 89° |
| 2026-05-07 19:29 | 39.36631 | 1.24553 | 18948 ft | 404 kts | 89° |
| 2026-05-07 19:30 | 39.36771 | 1.28157 | 18470 ft | 399 kts | 89° |
| 2026-05-07 19:30 | 39.36909 | 1.31724 | 17965 ft | 395 kts | 88° |
| 2026-05-07 19:30 | 39.37044 | 1.35240 | 17474 ft | 389 kts | 89° |
| 2026-05-07 19:30 | 39.37176 | 1.38710 | 16991 ft | 384 kts | 89° |
| 2026-05-07 19:31 | 39.37415 | 1.42133 | 16521 ft | 380 kts | 83° |
| 2026-05-07 19:31 | 39.37834 | 1.45487 | 16084 ft | 375 kts | 82° |
| 2026-05-07 19:31 | 39.38274 | 1.48785 | 15621 ft | 371 kts | 82° |
| 2026-05-07 19:31 | 39.38706 | 1.52017 | 15150 ft | 368 kts | 82° |
| 2026-05-07 19:32 | 39.39135 | 1.55262 | 14677 ft | 365 kts | 81° |
| 2026-05-07 19:32 | 39.39564 | 1.58518 | 14204 ft | 362 kts | 81° |
| 2026-05-07 19:32 | 39.39985 | 1.61721 | 13744 ft | 359 kts | 81° |
| 2026-05-07 19:32 | 39.40394 | 1.64850 | 13244 ft | 357 kts | 81° |
| 2026-05-07 19:33 | 39.40805 | 1.67995 | 12767 ft | 353 kts | 81° |
| 2026-05-07 19:33 | 39.41210 | 1.71108 | 12315 ft | 349 kts | 81° |
| 2026-05-07 19:33 | 39.41608 | 1.74177 | 11858 ft | 345 kts | 81° |
| 2026-05-07 19:33 | 39.42002 | 1.77214 | 11388 ft | 341 kts | 81° |
| 2026-05-07 19:34 | 39.42391 | 1.80228 | 10938 ft | 338 kts | 81° |
| 2026-05-07 19:34 | 39.42776 | 1.83207 | 10531 ft | 333 kts | 80° |
| 2026-05-07 19:34 | 39.43154 | 1.86142 | 10365 ft | 320 kts | 80° |
| 2026-05-07 19:34 | 39.43509 | 1.88904 | 10199 ft | 310 kts | 80° |
| 2026-05-07 19:35 | 39.43855 | 1.91607 | 10026 ft | 300 kts | 79° |
| 2026-05-07 19:35 | 39.44190 | 1.94226 | 9866 ft | 290 kts | 79° |
| 2026-05-07 19:35 | 39.44514 | 1.96764 | 9684 ft | 282 kts | 79° |
| 2026-05-07 19:35 | 39.44828 | 1.99225 | 9542 ft | 273 kts | 79° |
| 2026-05-07 19:36 | 39.45350 | 2.01534 | 9353 ft | 264 kts | 60° |
| 2026-05-07 19:36 | 39.46478 | 2.03345 | 9211 ft | 255 kts | 44° |
| 2026-05-07 19:36 | 39.47760 | 2.04885 | 9093 ft | 249 kts | 42° |
| 2026-05-07 19:36 | 39.49040 | 2.06364 | 8870 ft | 245 kts | 42° |
| 2026-05-07 19:37 | 39.50306 | 2.07820 | 8662 ft | 242 kts | 41° |
| 2026-05-07 19:37 | 39.51560 | 2.09260 | 8435 ft | 240 kts | 41° |
| 2026-05-07 19:37 | 39.52799 | 2.10686 | 8265 ft | 236 kts | 41° |
| 2026-05-07 19:37 | 39.54010 | 2.12080 | 8154 ft | 229 kts | 42° |
| 2026-05-07 19:38 | 39.55182 | 2.13430 | 8050 ft | 222 kts | 42° |
| 2026-05-07 19:38 | 39.56318 | 2.14740 | 7959 ft | 215 kts | 41° |
| 2026-05-07 19:38 | 39.57403 | 2.16005 | 7953 ft | 204 kts | 42° |
| 2026-05-07 19:38 | 39.58431 | 2.17207 | 7947 ft | 194 kts | 41° |
| 2026-05-07 19:39 | 39.59425 | 2.18372 | 7960 ft | 192 kts | 42° |
| 2026-05-07 19:39 | 39.60415 | 2.19534 | 7961 ft | 192 kts | 42° |
| 2026-05-07 19:39 | 39.61411 | 2.20700 | 7961 ft | 192 kts | 41° |
| 2026-05-07 19:39 | 39.62066 | 2.21467 | 7962 ft | 192 kts | 42° |
| 2026-05-07 19:40 | 39.63392 | 2.23021 | 7962 ft | 192 kts | 42° |
| 2026-05-07 19:40 | 39.64353 | 2.24223 | 7956 ft | 192 kts | 51° |
| 2026-05-07 19:40 | 39.64824 | 2.25824 | 7789 ft | 194 kts | 86° |
| 2026-05-07 19:40 | 39.64437 | 2.27505 | 7542 ft | 201 kts | 123° |
| 2026-05-07 19:41 | 39.63313 | 2.28595 | 7336 ft | 209 kts | 159° |
| 2026-05-07 19:41 | 39.61868 | 2.28819 | 7146 ft | 211 kts | 179° |
| 2026-05-07 19:41 | 39.60403 | 2.28737 | 6965 ft | 211 kts | 181° |
| 2026-05-07 19:41 | 39.58938 | 2.28611 | 6762 ft | 211 kts | 182° |
| 2026-05-07 19:42 | 39.57476 | 2.28478 | 6565 ft | 211 kts | 182° |
| 2026-05-07 19:42 | 39.56009 | 2.28340 | 6365 ft | 211 kts | 182° |
| 2026-05-07 19:42 | 39.54551 | 2.28197 | 6211 ft | 209 kts | 182° |
| 2026-05-07 19:42 | 39.53120 | 2.28288 | 6014 ft | 205 kts | 166° |
| 2026-05-07 19:43 | 39.51737 | 2.28698 | 5819 ft | 203 kts | 162° |
| 2026-05-07 19:43 | 39.50372 | 2.29157 | 5622 ft | 202 kts | 162° |
| 2026-05-07 19:43 | 39.49031 | 2.29625 | 5485 ft | 198 kts | 162° |
| 2026-05-07 19:43 | 39.47707 | 2.30098 | 5291 ft | 197 kts | 162° |
| 2026-05-07 19:44 | 39.46385 | 2.30571 | 5081 ft | 197 kts | 162° |
| 2026-05-07 19:44 | 39.45067 | 2.31076 | 4889 ft | 197 kts | 156° |
| 2026-05-07 19:44 | 39.44020 | 2.32150 | 4664 ft | 193 kts | 118° |
| 2026-05-07 19:44 | 39.43707 | 2.33209 | 4574 ft | 188 kts | 97° |
| 2026-05-07 19:45 | 39.43615 | 2.34900 | 4419 ft | 185 kts | 88° |
| 2026-05-07 19:45 | 39.43638 | 2.36551 | 4235 ft | 182 kts | 87° |
| 2026-05-07 19:45 | 39.43675 | 2.38178 | 4015 ft | 180 kts | 87° |
| 2026-05-07 19:45 | 39.43718 | 2.39789 | 3968 ft | 179 kts | 87° |
| 2026-05-07 19:46 | 39.43761 | 2.41415 | 3964 ft | 182 kts | 87° |
| 2026-05-07 19:46 | 39.43801 | 2.43056 | 3962 ft | 182 kts | 87° |
| 2026-05-07 19:46 | 39.43841 | 2.44695 | 3967 ft | 183 kts | 86° |
| 2026-05-07 19:46 | 39.43880 | 2.46336 | 3989 ft | 183 kts | 86° |
| 2026-05-07 19:47 | 39.44043 | 2.47958 | 3987 ft | 183 kts | 72° |
| 2026-05-07 19:47 | 39.44552 | 2.49465 | 3894 ft | 183 kts | 61° |
| 2026-05-07 19:47 | 39.45196 | 2.50886 | 3646 ft | 184 kts | 59° |
| 2026-05-07 19:47 | 39.45866 | 2.52319 | 3390 ft | 187 kts | 58° |
| 2026-05-07 19:48 | 39.46552 | 2.53769 | 3111 ft | 191 kts | 59° |
| 2026-05-07 19:48 | 39.47234 | 2.55215 | 2858 ft | 185 kts | 59° |
| 2026-05-07 19:48 | 39.47891 | 2.56606 | 2588 ft | 177 kts | 59° |
| 2026-05-07 19:48 | 39.48518 | 2.57933 | 2349 ft | 167 kts | 59° |
| 2026-05-07 19:49 | 39.49109 | 2.59185 | 2112 ft | 158 kts | 59° |
| 2026-05-07 19:49 | 39.49669 | 2.60384 | 1961 ft | 156 kts | 60° |
| 2026-05-07 19:49 | 39.50227 | 2.61560 | 1709 ft | 150 kts | 58° |
| 2026-05-07 19:49 | 39.50788 | 2.62733 | 1520 ft | 151 kts | 57° |
| 2026-05-07 19:50 | 39.51317 | 2.63861 | 1285 ft | 141 kts | 60° |
| 2026-05-07 19:50 | 39.51789 | 2.64866 | 1114 ft | 123 kts | 58° |
| 2026-05-07 19:50 | 39.52229 | 2.65797 | 963 ft | 121 kts | 59° |
| 2026-05-07 19:50 | 39.52668 | 2.66723 | 807 ft | 121 kts | 58° |
| 2026-05-07 19:51 | 39.53103 | 2.67651 | 634 ft | 120 kts | 57° |
| 2026-05-07 19:51 | 39.53544 | 2.68583 | 486 ft | 121 kts | 56° |
| 2026-05-07 19:51 | 39.53975 | 2.69510 | 328 ft | 120 kts | 59° |
| 2026-05-07 19:51 | 39.54422 | 2.70434 | 178 ft | 120 kts | 58° |
| 2026-05-07 19:52 | 39.54855 | 2.71351 | 48 ft | 119 kts | 59° |
| 2026-05-07 19:52 | 39.55184 | 2.72054 | 42 ft | 51 kts | 58° |
| 2026-05-07 19:52 | 39.55332 | 2.72371 | 42 ft | 38 kts | 58° |
| 2026-05-07 19:52 | 39.55459 | 2.72652 | 42 ft | 35 kts | 66° |
| 2026-05-07 19:53 | 39.55496 | 2.72947 | 42 ft | 30 kts | 88° |
| 2026-05-07 19:53 | 39.55503 | 2.73133 | 42 ft | 11 kts | 86° |
| 2026-05-07 19:53 | 39.55519 | 2.73211 | 42 ft | 8 kts | 60° |
| 2026-05-07 19:53 | 39.55538 | 2.73250 | 42 ft | 4 kts | 57° |
| 2026-05-07 19:54 | 39.55549 | 2.73272 | 42 ft | 2 kts | 57° |
| 2026-05-07 19:54 | 39.55552 | 2.73280 | 42 ft | 1 kts | 58° |
| 2026-05-07 19:54 | 39.55574 | 2.73329 | 42 ft | 12 kts | 60° |
| 2026-05-07 19:54 | 39.55619 | 2.73429 | 42 ft | 12 kts | 61° |
| 2026-05-07 19:55 | 39.55604 | 2.73512 | 42 ft | 10 kts | 135° |
| 2026-05-07 19:55 | 39.55547 | 2.73559 | 42 ft | 10 kts | 149° |
| 2026-05-07 19:55 | 39.55485 | 2.73607 | 42 ft | 10 kts | 149° |
| 2026-05-07 19:55 | 39.55426 | 2.73653 | 42 ft | 12 kts | 149° |
| 2026-05-07 19:56 | 39.55342 | 2.73718 | 42 ft | 14 kts | 149° |
| 2026-05-07 19:56 | 39.55263 | 2.73780 | 42 ft | 12 kts | 148° |
| 2026-05-07 19:56 | 39.55190 | 2.73839 | 42 ft | 12 kts | 147° |
| 2026-05-07 19:56 | 39.55115 | 2.73900 | 42 ft | 13 kts | 147° |
| 2026-05-07 19:57 | 39.55034 | 2.73964 | 42 ft | 14 kts | 149° |
| 2026-05-07 19:57 | 39.54945 | 2.74031 | 42 ft | 16 kts | 149° |
| 2026-05-07 19:57 | 39.54845 | 2.74108 | 41 ft | 17 kts | 150° |
| 2026-05-07 19:57 | 39.54775 | 2.74086 | 42 ft | 9 kts | 223° |
| 2026-05-07 19:58 | 39.54734 | 2.74012 | 42 ft | 11 kts | 237° |
| 2026-05-07 19:58 | 39.54686 | 2.73916 | 42 ft | 14 kts | 240° |
| 2026-05-07 19:58 | 39.54634 | 2.73800 | 42 ft | 16 kts | 239° |
| 2026-05-07 19:58 | 39.54589 | 2.73700 | 42 ft | 11 kts | 246° |
| 2026-05-07 19:59 | 39.54597 | 2.73640 | 42 ft | 4 kts | 306° |
| 2026-05-07 19:59 | 39.54625 | 2.73623 | 42 ft | 5 kts | 347° |
| 2026-05-07 19:59 | 39.54668 | 2.73613 | 42 ft | 8 kts | 349° |
| 2026-05-07 19:59 | 39.54698 | 2.73589 | 42 ft | 6 kts | 326° |
| 2026-05-07 20:00 | 39.54739 | 2.73554 | 42 ft | 8 kts | 328° |
| 2026-05-07 20:00 | 39.54756 | 2.73542 | 42 ft | 3 kts | 330° |
| 2026-05-07 20:00 | 39.54768 | 2.73524 | 42 ft | 2 kts | 291° |
| 2026-05-07 20:00 | 39.54765 | 2.73505 | 42 ft | 3 kts | 255° |
| 2026-05-07 20:01 | 39.54749 | 2.73483 | 42 ft | 4 kts | 217° |
| 2026-05-07 20:01 | 39.54722 | 2.73447 | 42 ft | 7 kts | 232° |
| 2026-05-07 20:01 | 39.54704 | 2.73411 | 42 ft | 4 kts | 239° |
| 2026-05-07 20:01 | 39.54697 | 2.73395 | 42 ft | 0 kts | 239° |